This is the latest recevied weather packets stored in our database for station/object E23XBQ-1. If no packets are shown the sender has not sent any weather packets the latest 10 day(s).
| Time | Temp. | Humidity | Pressure | Rain* | Wind** | Luminosity | Snow |
|---|---|---|---|---|---|---|---|
| 1777693257 | 35° C | 42% | 972 hPa | - | - | 0 W/m² | - |
| 1777692633 | 35° C | 45% | 972 hPa | - | - | 0 W/m² | - |
| 1777692008 | 34.44° C | 47% | 972 hPa | - | - | 0 W/m² | - |
| 1777691384 | 33.89° C | 47% | 973 hPa | - | - | 0 W/m² | - |
| 1777690759 | 33.89° C | 47% | 973 hPa | - | - | 0 W/m² | - |
| 1777690133 | 33.33° C | 50% | 973 hPa | - | - | 0 W/m² | - |
| 1777689509 | 33.33° C | 51% | 973 hPa | - | - | 0 W/m² | - |
| 1777688885 | 33.33° C | 52% | 973 hPa | - | - | 0 W/m² | - |
| 1777688259 | 32.78° C | 53% | 973 hPa | - | - | 0 W/m² | - |
| 1777687634 | 32.22° C | 58% | 973 hPa | - | - | 0 W/m² | - |
| 1777687010 | 31.11° C | 62% | 973 hPa | - | - | 0 W/m² | - |
| 1777686385 | 30.56° C | 68% | 973 hPa | - | - | 0 W/m² | - |
| 1777685760 | 30° C | 67% | 973 hPa | - | - | 0 W/m² | - |
| 1777685136 | 29.44° C | 71% | 973 hPa | - | - | 0 W/m² | - |
| 1777684511 | 28.33° C | 81% | 973 hPa | - | - | 0 W/m² | - |
| 1777683886 | 27.78° C | 86% | 973 hPa | - | - | 0 W/m² | - |
| 1777683261 | 26.67° C | 89% | 972 hPa | - | - | 0 W/m² | - |
| 1777682636 | 25.56° C | 99% | 972 hPa | - | - | 0 W/m² | - |
| 1777682010 | 25° C | 99% | 972 hPa | - | - | 0 W/m² | - |
| 1777681385 | 25° C | 99% | 972 hPa | - | - | 0 W/m² | - |
| 1777680760 | 24.44° C | 99% | 972 hPa | - | - | 0 W/m² | - |
| 1777680135 | 23.89° C | 99% | 972 hPa | - | - | 0 W/m² | - |
| 1777679511 | 23.89° C | 99% | 972 hPa | - | - | 0 W/m² | - |
| 1777678886 | 23.33° C | 99% | 971 hPa | - | - | 0 W/m² | - |
| 1777678260 | 22.78° C | 99% | 971 hPa | - | - | 0 W/m² | - |
* Rain since midnight (hover to see other rain measurements)
** Current wind speed in m/s (hover to see current wind gust speed)